sensor_id;sensor_type;location;lat;lon;timestamp;pressure;altitude;pressure_sealevel;temperature;humidity
54808;BME280;40708;50.364;7.550;2022-11-20T00:00:49;100161.22;;;2.52;100.00
54808;BME280;40708;50.364;7.550;2022-11-20T00:03:14;100161.31;;;2.55;100.00
54808;BME280;40708;50.364;7.550;2022-11-20T00:05:40;100161.13;;;2.49;100.00
54808;BME280;40708;50.364;7.550;2022-11-20T00:08:05;100168.41;;;2.59;100.00
54808;BME280;40708;50.364;7.550;2022-11-20T00:10:30;100161.03;;;2.45;100.00
54808;BME280;40708;50.364;7.550;2022-11-20T00:12:57;100156.56;;;2.42;100.00
54808;BME280;40708;50.364;7.550;2022-11-20T00:15:23;100153.19;;;2.46;100.00
54808;BME280;40708;50.364;7.550;2022-11-20T00:17:48;100149.69;;;2.46;100.00
54808;BME280;40708;50.364;7.550;2022-11-20T00:20:14;100145.34;;;2.46;100.00
54808;BME280;40708;50.364;7.550;2022-11-20T00:22:39;100142.63;;;2.43;100.00
54808;BME280;40708;50.364;7.550;2022-11-20T00:25:05;100149.59;;;2.42;100.00
54808;BME280;40708;50.364;7.550;2022-11-20T00:27:30;100154.97;;;2.47;100.00
54808;BME280;40708;50.364;7.550;2022-11-20T00:29:55;100154.91;;;2.46;100.00
54808;BME280;40708;50.364;7.550;2022-11-20T00:32:21;100158.53;;;2.51;100.00
54808;BME280;40708;50.364;7.550;2022-11-20T00:34:46;100156.03;;;2.54;100.00
54808;BME280;40708;50.364;7.550;2022-11-20T00:37:11;100154.19;;;2.51;100.00
54808;BME280;40708;50.364;7.550;2022-11-20T00:39:36;100149.03;;;2.53;100.00
54808;BME280;40708;50.364;7.550;2022-11-20T00:42:02;100144.34;;;2.42;100.00
54808;BME280;40708;50.364;7.550;2022-11-20T00:44:27;100152.47;;;2.52;100.00
54808;BME280;40708;50.364;7.550;2022-11-20T00:46:52;100153.22;;;2.48;100.00
54808;BME280;40708;50.364;7.550;2022-11-20T00:49:18;100149.78;;;2.49;100.00
54808;BME280;40708;50.364;7.550;2022-11-20T00:51:43;100149.06;;;2.54;100.00
54808;BME280;40708;50.364;7.550;2022-11-20T00:54:08;100150.94;;;2.58;100.00
54808;BME280;40708;50.364;7.550;2022-11-20T00:56:33;100154.41;;;2.59;100.00
54808;BME280;40708;50.364;7.550;2022-11-20T00:59:00;100149.25;;;2.62;100.00
54808;BME280;40708;50.364;7.550;2022-11-20T01:01:26;100146.56;;;2.59;100.00
54808;BME280;40708;50.364;7.550;2022-11-20T01:03:55;100148.84;;;2.47;100.00
54808;BME280;40708;50.364;7.550;2022-11-20T01:06:26;100146.31;;;2.50;100.00
54808;BME280;40708;50.364;7.550;2022-11-20T01:08:55;100157.00;;;2.57;100.00
54808;BME280;40708;50.364;7.550;2022-11-20T01:11:32;100158.78;;;2.58;100.00
54808;BME280;40708;50.364;7.550;2022-11-20T01:13:59;100151.84;;;2.60;100.00
54808;BME280;40708;50.364;7.550;2022-11-20T01:16:28;100151.75;;;2.57;100.00
54808;BME280;40708;50.364;7.550;2022-11-20T01:18:57;100149.09;;;2.56;100.00
54808;BME280;40708;50.364;7.550;2022-11-20T01:21:26;100151.59;;;2.51;100.00
54808;BME280;40708;50.364;7.550;2022-11-20T01:23:52;100149.88;;;2.53;100.00
54808;BME280;40708;50.364;7.550;2022-11-20T01:26:20;100150.75;;;2.52;100.00
54808;BME280;40708;50.364;7.550;2022-11-20T01:28:46;100161.34;;;2.57;100.00
54808;BME280;40708;50.364;7.550;2022-11-20T01:31:21;100160.50;;;2.58;100.00
54808;BME280;40708;50.364;7.550;2022-11-20T01:33:48;100158.81;;;2.60;100.00
54808;BME280;40708;50.364;7.550;2022-11-20T01:36:15;100162.44;;;2.65;100.00
54808;BME280;40708;50.364;7.550;2022-11-20T01:38:41;100158.91;;;2.63;100.00
54808;BME280;40708;50.364;7.550;2022-11-20T01:41:08;100161.53;;;2.64;100.00
54808;BME280;40708;50.364;7.550;2022-11-20T01:43:34;100159.06;;;2.69;100.00
54808;BME280;40708;50.364;7.550;2022-11-20T01:46:01;100156.44;;;2.69;100.00
54808;BME280;40708;50.364;7.550;2022-11-20T01:48:35;100158.72;;;2.57;100.00
54808;BME280;40708;50.364;7.550;2022-11-20T01:51:03;100156.38;;;2.66;100.00
54808;BME280;40708;50.364;7.550;2022-11-20T01:53:32;100153.06;;;2.73;100.00
54808;BME280;40708;50.364;7.550;2022-11-20T01:56:01;100151.41;;;2.76;100.00
54808;BME280;40708;50.364;7.550;2022-11-20T01:58:31;100148.53;;;2.67;100.00
54808;BME280;40708;50.364;7.550;2022-11-20T02:00:57;100153.06;;;2.73;100.00
54808;BME280;40708;50.364;7.550;2022-11-20T02:03:23;100146.81;;;2.68;100.00
54808;BME280;40708;50.364;7.550;2022-11-20T02:06:11;100132.63;;;2.60;100.00
54808;BME280;40708;50.364;7.550;2022-11-20T02:08:38;100139.69;;;2.62;100.00
54808;BME280;40708;50.364;7.550;2022-11-20T02:11:03;100148.50;;;2.66;100.00
54808;BME280;40708;50.364;7.550;2022-11-20T02:13:29;100152.13;;;2.71;100.00
54808;BME280;40708;50.364;7.550;2022-11-20T02:16:16;100159.91;;;2.68;100.00
54808;BME280;40708;50.364;7.550;2022-11-20T02:18:44;100154.69;;;2.69;100.00
54808;BME280;40708;50.364;7.550;2022-11-20T02:21:21;100146.81;;;2.68;100.00
54808;BME280;40708;50.364;7.550;2022-11-20T02:23:59;100150.44;;;2.73;100.00
54808;BME280;40708;50.364;7.550;2022-11-20T02:26:26;100148.78;;;2.76;100.00
54808;BME280;40708;50.364;7.550;2022-11-20T02:28:53;100139.22;;;2.78;100.00
54808;BME280;40708;50.364;7.550;2022-11-20T02:31:19;100133.81;;;2.71;100.00
54808;BME280;40708;50.364;7.550;2022-11-20T02:33:44;100125.16;;;2.75;100.00
54808;BME280;40708;50.364;7.550;2022-11-20T02:36:11;100125.84;;;2.68;100.00
54808;BME280;40708;50.364;7.550;2022-11-20T02:38:39;100130.41;;;2.75;100.00
54808;BME280;40708;50.364;7.550;2022-11-20T02:41:04;100141.84;;;2.78;100.00
54808;BME280;40708;50.364;7.550;2022-11-20T02:43:29;100129.72;;;2.82;100.00
54808;BME280;40708;50.364;7.550;2022-11-20T02:45:55;100131.50;;;2.83;100.00
54808;BME280;40708;50.364;7.550;2022-11-20T02:48:20;100140.13;;;2.79;100.00
54808;BME280;40708;50.364;7.550;2022-11-20T02:50:45;100141.16;;;2.85;100.00
54808;BME280;40708;50.364;7.550;2022-11-20T02:53:11;100148.16;;;2.85;100.00
54808;BME280;40708;50.364;7.550;2022-11-20T02:55:36;100138.63;;;2.88;100.00
54808;BME280;40708;50.364;7.550;2022-11-20T02:58:02;100142.91;;;2.85;100.00
54808;BME280;40708;50.364;7.550;2022-11-20T03:00:27;100138.69;;;2.90;100.00
54808;BME280;40708;50.364;7.550;2022-11-20T03:02:52;100137.03;;;2.93;100.00
54808;BME280;40708;50.364;7.550;2022-11-20T03:05:18;100137.06;;;2.95;100.00
54808;BME280;40708;50.364;7.550;2022-11-20T03:07:43;100141.31;;;2.91;100.00
54808;BME280;40708;50.364;7.550;2022-11-20T03:10:09;100124.72;;;2.91;100.00
54808;BME280;40708;50.364;7.550;2022-11-20T03:12:34;100118.38;;;2.83;100.00
54808;BME280;40708;50.364;7.550;2022-11-20T03:15:00;100124.66;;;2.88;100.00
54808;BME280;40708;50.364;7.550;2022-11-20T03:17:25;100120.34;;;2.90;100.00
54808;BME280;40708;50.364;7.550;2022-11-20T03:19:50;100123.03;;;2.93;100.00
54808;BME280;40708;50.364;7.550;2022-11-20T03:22:16;100124.75;;;2.92;100.00
54808;BME280;40708;50.364;7.550;2022-11-20T03:24:41;100111.66;;;2.92;100.00
54808;BME280;40708;50.364;7.550;2022-11-20T03:27:06;100132.72;;;2.97;100.00
54808;BME280;40708;50.364;7.550;2022-11-20T03:29:31;100119.63;;;2.97;100.00
54808;BME280;40708;50.364;7.550;2022-11-20T03:31:57;100119.59;;;2.95;100.00
54808;BME280;40708;50.364;7.550;2022-11-20T03:34:22;100115.19;;;2.93;100.00
54808;BME280;40708;50.364;7.550;2022-11-20T03:36:48;100113.44;;;2.93;100.00
54808;BME280;40708;50.364;7.550;2022-11-20T03:39:13;100116.81;;;2.88;100.00
54808;BME280;40708;50.364;7.550;2022-11-20T03:41:40;100117.72;;;2.90;100.00
54808;BME280;40708;50.364;7.550;2022-11-20T03:44:08;100112.34;;;2.85;100.00
54808;BME280;40708;50.364;7.550;2022-11-20T03:46:33;100104.34;;;2.79;100.00
54808;BME280;40708;50.364;7.550;2022-11-20T03:48:59;100093.94;;;2.82;100.00
54808;BME280;40708;50.364;7.550;2022-11-20T03:51:27;100107.25;;;2.90;100.00
54808;BME280;40708;50.364;7.550;2022-11-20T03:53:55;100098.47;;;2.89;100.00
54808;BME280;40708;50.364;7.550;2022-11-20T03:56:26;100100.28;;;2.90;100.00
54808;BME280;40708;50.364;7.550;2022-11-20T03:58:52;100101.94;;;2.88;100.00
54808;BME280;40708;50.364;7.550;2022-11-20T04:01:23;100102.53;;;2.77;100.00
54808;BME280;40708;50.364;7.550;2022-11-20T04:03:50;100106.25;;;2.85;100.00
54808;BME280;40708;50.364;7.550;2022-11-20T04:06:21;100117.66;;;2.88;100.00
54808;BME280;40708;50.364;7.550;2022-11-20T04:08:48;100110.69;;;2.89;100.00
54808;BME280;40708;50.364;7.550;2022-11-20T04:11:19;100112.34;;;2.85;100.00
54808;BME280;40708;50.364;7.550;2022-11-20T04:13:53;100110.84;;;2.93;100.00
54808;BME280;40708;50.364;7.550;2022-11-20T04:16:19;100112.69;;;2.99;100.00
54808;BME280;40708;50.364;7.550;2022-11-20T04:18:45;100107.44;;;2.99;100.00
54808;BME280;40708;50.364;7.550;2022-11-20T04:21:11;100116.13;;;2.96;100.00
54808;BME280;40708;50.364;7.550;2022-11-20T04:23:37;100105.78;;;3.01;100.00
54808;BME280;40708;50.364;7.550;2022-11-20T04:26:09;100102.06;;;2.93;100.00
54808;BME280;40708;50.364;7.550;2022-11-20T04:28:35;100099.56;;;2.97;100.00
54808;BME280;40708;50.364;7.550;2022-11-20T04:31:10;100099.38;;;2.90;100.00
54808;BME280;40708;50.364;7.550;2022-11-20T04:33:37;100105.59;;;2.93;100.00
54808;BME280;40708;50.364;7.550;2022-11-20T04:36:07;100109.97;;;2.94;100.00
54808;BME280;40708;50.364;7.550;2022-11-20T04:38:34;100107.53;;;3.02;100.00
54808;BME280;40708;50.364;7.550;2022-11-20T04:41:00;100112.13;;;3.11;100.00
54808;BME280;40708;50.364;7.550;2022-11-20T04:43:26;100110.31;;;3.08;100.00
54808;BME280;40708;50.364;7.550;2022-11-20T04:45:53;100105.97;;;3.10;100.00
54808;BME280;40708;50.364;7.550;2022-11-20T04:48:18;100106.94;;;3.12;100.00
54808;BME280;40708;50.364;7.550;2022-11-20T04:50:44;100113.09;;;3.14;100.00
54808;BME280;40708;50.364;7.550;2022-11-20T04:53:09;100106.06;;;3.13;100.00
54808;BME280;40708;50.364;7.550;2022-11-20T04:55:34;100110.38;;;3.10;100.00
54808;BME280;40708;50.364;7.550;2022-11-20T04:58:00;100102.28;;;3.02;100.00
54808;BME280;40708;50.364;7.550;2022-11-20T05:00:25;100098.91;;;3.06;100.00
54808;BME280;40708;50.364;7.550;2022-11-20T05:02:50;100095.56;;;3.13;100.00
54808;BME280;40708;50.364;7.550;2022-11-20T05:05:16;100099.06;;;3.12;100.00
54808;BME280;40708;50.364;7.550;2022-11-20T05:07:41;100089.44;;;3.13;100.00
54808;BME280;40708;50.364;7.550;2022-11-20T05:10:06;100096.63;;;3.20;100.00
54808;BME280;40708;50.364;7.550;2022-11-20T05:12:32;100085.16;;;3.15;100.00
54808;BME280;40708;50.364;7.550;2022-11-20T05:14:57;100093.94;;;3.18;100.00
54808;BME280;40708;50.364;7.550;2022-11-20T05:17:22;100087.69;;;3.12;100.00
54808;BME280;40708;50.364;7.550;2022-11-20T05:19:48;100090.34;;;3.13;100.00
54808;BME280;40708;50.364;7.550;2022-11-20T05:22:13;100083.34;;;3.12;100.00
54808;BME280;40708;50.364;7.550;2022-11-20T05:24:38;100086.03;;;3.15;100.00
54808;BME280;40708;50.364;7.550;2022-11-20T05:27:04;100087.78;;;3.15;100.00
54808;BME280;40708;50.364;7.550;2022-11-20T05:29:29;100084.19;;;3.11;100.00
54808;BME280;40708;50.364;7.550;2022-11-20T05:31:54;100076.28;;;3.10;100.00
54808;BME280;40708;50.364;7.550;2022-11-20T05:34:20;100084.19;;;3.11;100.00
54808;BME280;40708;50.364;7.550;2022-11-20T05:36:45;100085.91;;;3.11;100.00
54808;BME280;40708;50.364;7.550;2022-11-20T05:39:10;100085.97;;;3.14;100.00
54808;BME280;40708;50.364;7.550;2022-11-20T05:41:35;100088.59;;;3.12;100.00
54808;BME280;40708;50.364;7.550;2022-11-20T05:44:01;100081.63;;;3.14;100.00
54808;BME280;40708;50.364;7.550;2022-11-20T05:46:26;100083.53;;;3.21;100.00
54808;BME280;40708;50.364;7.550;2022-11-20T05:48:52;100081.88;;;3.23;100.00
54808;BME280;40708;50.364;7.550;2022-11-20T05:51:18;100087.09;;;3.23;100.00
54808;BME280;40708;50.364;7.550;2022-11-20T05:53:45;100081.72;;;3.19;100.00
54808;BME280;40708;50.364;7.550;2022-11-20T05:56:12;100078.28;;;3.21;100.00
54808;BME280;40708;50.364;7.550;2022-11-20T05:58:38;100078.44;;;3.26;100.00
54808;BME280;40708;50.364;7.550;2022-11-20T06:01:12;100074.91;;;3.25;100.00
54808;BME280;40708;50.364;7.550;2022-11-20T06:03:38;100076.66;;;3.26;100.00
54808;BME280;40708;50.364;7.550;2022-11-20T06:06:04;100079.19;;;3.22;100.00
54808;BME280;40708;50.364;7.550;2022-11-20T06:08:30;100084.41;;;3.20;100.00
54808;BME280;40708;50.364;7.550;2022-11-20T06:10:56;100082.84;;;3.28;100.00
54808;BME280;40708;50.364;7.550;2022-11-20T06:13:21;100087.31;;;3.32;100.00
54808;BME280;40708;50.364;7.550;2022-11-20T06:15:50;100089.00;;;3.30;100.00
54808;BME280;40708;50.364;7.550;2022-11-20T06:18:16;100101.47;;;3.39;100.00
54808;BME280;40708;50.364;7.550;2022-11-20T06:20:42;100098.84;;;3.40;100.00
54808;BME280;40708;50.364;7.550;2022-11-20T06:23:07;100097.13;;;3.41;100.00
54808;BME280;40708;50.364;7.550;2022-11-20T06:25:32;100097.13;;;3.41;100.00
54808;BME280;40708;50.364;7.550;2022-11-20T06:27:58;100092.78;;;3.41;100.00
54808;BME280;40708;50.364;7.550;2022-11-20T06:30:23;100098.84;;;3.39;100.00
54808;BME280;40708;50.364;7.550;2022-11-20T06:32:48;100098.84;;;3.40;100.00
54808;BME280;40708;50.364;7.550;2022-11-20T06:35:13;100098.09;;;3.44;100.00
54808;BME280;40708;50.364;7.550;2022-11-20T06:37:39;100103.28;;;3.43;100.00
54808;BME280;40708;50.364;7.550;2022-11-20T06:40:05;100100.88;;;3.50;100.00
54808;BME280;40708;50.364;7.550;2022-11-20T06:42:30;100102.66;;;3.53;100.00
54808;BME280;40708;50.364;7.550;2022-11-20T06:44:55;100100.06;;;3.54;100.00
54808;BME280;40708;50.364;7.550;2022-11-20T06:47:21;100097.50;;;3.56;100.00
54808;BME280;40708;50.364;7.550;2022-11-20T06:49:46;100090.41;;;3.53;100.00
54808;BME280;40708;50.364;7.550;2022-11-20T06:52:11;100106.97;;;3.51;100.00
54808;BME280;40708;50.364;7.550;2022-11-20T06:54:37;100099.19;;;3.54;100.00
54808;BME280;40708;50.364;7.550;2022-11-20T06:57:02;100106.22;;;3.55;100.00
54808;BME280;40708;50.364;7.550;2022-11-20T06:59:27;100105.28;;;3.53;100.00
54808;BME280;40708;50.364;7.550;2022-11-20T07:01:52;100109.50;;;3.46;100.00
54808;BME280;40708;50.364;7.550;2022-11-20T07:04:18;100105.91;;;3.43;100.00
54808;BME280;40708;50.364;7.550;2022-11-20T07:06:43;100106.03;;;3.47;100.00
54808;BME280;40708;50.364;7.550;2022-11-20T07:09:09;100107.78;;;3.48;100.00
54808;BME280;40708;50.364;7.550;2022-11-20T07:11:34;100110.28;;;3.42;100.00
54808;BME280;40708;50.364;7.550;2022-11-20T07:14:00;100111.28;;;3.47;100.00
54808;BME280;40708;50.364;7.550;2022-11-20T07:16:25;100114.66;;;3.43;100.00
54808;BME280;40708;50.364;7.550;2022-11-20T07:18:50;100127.00;;;3.47;100.00
54808;BME280;40708;50.364;7.550;2022-11-20T07:21:15;100127.00;;;3.47;100.00
54808;BME280;40708;50.364;7.550;2022-11-20T07:23:41;100127.75;;;3.42;100.00
54808;BME280;40708;50.364;7.550;2022-11-20T07:26:08;100131.38;;;3.48;100.00
54808;BME280;40708;50.364;7.550;2022-11-20T07:28:34;100142.00;;;3.53;100.00
54808;BME280;40708;50.364;7.550;2022-11-20T07:31:00;100133.28;;;3.54;100.00
54808;BME280;40708;50.364;7.550;2022-11-20T07:33:26;100142.94;;;3.56;100.00
54808;BME280;40708;50.364;7.550;2022-11-20T07:35:51;100143.75;;;3.52;100.00
54808;BME280;40708;50.364;7.550;2022-11-20T07:38:16;100140.19;;;3.50;100.00
54808;BME280;40708;50.364;7.550;2022-11-20T07:40:42;100151.53;;;3.49;100.00
54808;BME280;40708;50.364;7.550;2022-11-20T07:43:07;100150.56;;;3.46;100.00
54808;BME280;40708;50.364;7.550;2022-11-20T07:45:32;100152.50;;;3.53;100.00
54808;BME280;40708;50.364;7.550;2022-11-20T07:47:57;100155.19;;;3.56;100.00
54808;BME280;40708;50.364;7.550;2022-11-20T07:50:23;100154.44;;;3.61;100.00
54808;BME280;40708;50.364;7.550;2022-11-20T07:52:48;100153.69;;;3.67;100.00
54808;BME280;40708;50.364;7.550;2022-11-20T07:55:13;100157.31;;;3.72;100.00
54808;BME280;40708;50.364;7.550;2022-11-20T07:57:39;100163.50;;;3.76;100.00
54808;BME280;40708;50.364;7.550;2022-11-20T08:00:05;100160.72;;;3.70;100.00
54808;BME280;40708;50.364;7.550;2022-11-20T08:02:33;100161.78;;;3.76;100.00
54808;BME280;40708;50.364;7.550;2022-11-20T08:04:59;100155.88;;;3.86;100.00
54808;BME280;40708;50.364;7.550;2022-11-20T08:07:24;100155.06;;;3.89;100.00
54808;BME280;40708;50.364;7.550;2022-11-20T08:09:49;100159.38;;;3.85;100.00
54808;BME280;40708;50.364;7.550;2022-11-20T08:12:18;100158.69;;;3.94;100.00
54808;BME280;40708;50.364;7.550;2022-11-20T08:15:03;100159.31;;;3.84;100.00
54808;BME280;40708;50.364;7.550;2022-11-20T08:17:29;100152.41;;;3.86;100.00
54808;BME280;40708;50.364;7.550;2022-11-20T08:19:54;100167.38;;;3.91;100.00
54808;BME280;40708;50.364;7.550;2022-11-20T08:22:19;100160.22;;;3.84;100.00
54808;BME280;40708;50.364;7.550;2022-11-20T08:24:45;100152.34;;;3.84;100.00
54808;BME280;40708;50.364;7.550;2022-11-20T08:27:11;100156.69;;;3.84;100.00
54808;BME280;40708;50.364;7.550;2022-11-20T08:29:36;100152.41;;;3.87;100.00
54808;BME280;40708;50.364;7.550;2022-11-20T08:32:01;100151.69;;;3.94;100.00
54808;BME280;40708;50.364;7.550;2022-11-20T08:34:27;100147.44;;;3.99;100.00
54808;BME280;40708;50.364;7.550;2022-11-20T08:36:52;100154.53;;;4.03;100.00
54808;BME280;40708;50.364;7.550;2022-11-20T08:39:17;100146.72;;;4.06;100.00
54808;BME280;40708;50.364;7.550;2022-11-20T08:41:42;100152.22;;;4.18;100.00
54808;BME280;40708;50.364;7.550;2022-11-20T08:44:08;100156.69;;;4.24;100.00
54808;BME280;40708;50.364;7.550;2022-11-20T08:46:38;100153.28;;;4.27;100.00
54808;BME280;40708;50.364;7.550;2022-11-20T08:49:05;100141.78;;;4.21;100.00
54808;BME280;40708;50.364;7.550;2022-11-20T08:51:31;100135.81;;;4.29;100.00
54808;BME280;40708;50.364;7.550;2022-11-20T08:53:56;100143.09;;;4.42;100.00
54808;BME280;40708;50.364;7.550;2022-11-20T08:56:22;100139.66;;;4.46;100.00
54808;BME280;40708;50.364;7.550;2022-11-20T08:58:47;100142.31;;;4.47;100.00
54808;BME280;40708;50.364;7.550;2022-11-20T09:01:14;100145.91;;;4.51;100.00
54808;BME280;40708;50.364;7.550;2022-11-20T09:03:40;100142.25;;;4.44;100.00
54808;BME280;40708;50.364;7.550;2022-11-20T09:06:06;100140.44;;;4.40;100.00
54808;BME280;40708;50.364;7.550;2022-11-20T09:08:32;100144.88;;;4.44;100.00
54808;BME280;40708;50.364;7.550;2022-11-20T09:10:59;100141.69;;;4.59;100.00
54808;BME280;40708;50.364;7.550;2022-11-20T09:13:26;100146.25;;;4.69;100.00
54808;BME280;40708;50.364;7.550;2022-11-20T09:15:56;100134.06;;;4.72;100.00
54808;BME280;40708;50.364;7.550;2022-11-20T09:18:22;100132.28;;;4.73;100.00
54808;BME280;40708;50.364;7.550;2022-11-20T09:20:48;100133.13;;;4.69;100.00
54808;BME280;40708;50.364;7.550;2022-11-20T09:23:14;100141.00;;;4.70;100.00
54808;BME280;40708;50.364;7.550;2022-11-20T09:25:39;100141.19;;;4.79;100.00
54808;BME280;40708;50.364;7.550;2022-11-20T09:28:05;100140.22;;;4.74;100.00
54808;BME280;40708;50.364;7.550;2022-11-20T09:30:30;100139.53;;;4.85;100.00
54808;BME280;40708;50.364;7.550;2022-11-20T09:32:56;100138.50;;;4.76;100.00
54808;BME280;40708;50.364;7.550;2022-11-20T09:35:21;100130.47;;;4.69;100.00
54808;BME280;40708;50.364;7.550;2022-11-20T09:37:46;100133.91;;;4.65;100.00
54808;BME280;40708;50.364;7.550;2022-11-20T09:40:26;100132.28;;;4.73;100.00
54808;BME280;40708;50.364;7.550;2022-11-20T09:43:18;100135.94;;;4.79;100.00
54808;BME280;40708;50.364;7.550;2022-11-20T09:49:02;100121.19;;;4.88;100.00
54808;BME280;40708;50.364;7.550;2022-11-20T09:51:46;100113.53;;;5.01;100.00
54808;BME280;40708;50.364;7.550;2022-11-20T09:54:26;100109.19;;;5.03;100.00
54808;BME280;40708;50.364;7.550;2022-11-20T09:57:00;100103.00;;;5.00;100.00
54808;BME280;40708;50.364;7.550;2022-11-20T10:02:02;100099.25;;;4.86;100.00
54808;BME280;40708;50.364;7.550;2022-11-20T10:04:33;100110.09;;;5.04;100.00
54808;BME280;40708;50.364;7.550;2022-11-20T10:10:03;100100.56;;;5.10;100.00
54808;BME280;40708;50.364;7.550;2022-11-20T10:12:55;100099.19;;;5.33;100.00
54808;BME280;40708;50.364;7.550;2022-11-20T10:15:41;100090.50;;;5.39;100.00
54808;BME280;40708;50.364;7.550;2022-11-20T10:18:27;100081.44;;;5.22;100.00
54808;BME280;40708;50.364;7.550;2022-11-20T10:21:18;100074.66;;;5.34;100.00
54808;BME280;40708;50.364;7.550;2022-11-20T10:27:15;100072.97;;;5.41;100.00
54808;BME280;40708;50.364;7.550;2022-11-20T10:29:49;100056.59;;;5.59;100.00
54808;BME280;40708;50.364;7.550;2022-11-20T10:32:20;100056.00;;;5.79;100.00
54808;BME280;40708;50.364;7.550;2022-11-20T10:34:53;100048.44;;;6.04;100.00
54808;BME280;40708;50.364;7.550;2022-11-20T10:37:24;100051.81;;;5.93;100.00
54808;BME280;40708;50.364;7.550;2022-11-20T10:39:56;100047.38;;;5.88;100.00
54808;BME280;40708;50.364;7.550;2022-11-20T10:42:31;100035.88;;;5.81;100.00
54808;BME280;40708;50.364;7.550;2022-11-20T10:45:19;100040.81;;;6.28;100.00
54808;BME280;40708;50.364;7.550;2022-11-20T10:47:48;100038.31;;;6.38;100.00
54808;BME280;40708;50.364;7.550;2022-11-20T10:50:18;100026.97;;;6.47;100.00
54808;BME280;40708;50.364;7.550;2022-11-20T10:58:37;100011.34;;;6.67;100.00
54808;BME280;40708;50.364;7.550;2022-11-20T11:01:16;99999.19;;;6.82;100.00
54808;BME280;40708;50.364;7.550;2022-11-20T11:03:42;99991.50;;;7.09;100.00
54808;BME280;40708;50.364;7.550;2022-11-20T11:06:40;99990.81;;;7.42;100.00
54808;BME280;40708;50.364;7.550;2022-11-20T11:09:14;99986.41;;;7.35;100.00
54808;BME280;40708;50.364;7.550;2022-11-20T11:11:41;99978.28;;;7.03;100.00
54808;BME280;40708;50.364;7.550;2022-11-20T11:14:14;99981.06;;;7.29;100.00
54808;BME280;40708;50.364;7.550;2022-11-20T11:16:53;99972.00;;;6.85;100.00
54808;BME280;40708;50.364;7.550;2022-11-20T11:19:19;99978.25;;;7.00;100.00
54808;BME280;40708;50.364;7.550;2022-11-20T11:21:47;99968.56;;;6.99;100.00
54808;BME280;40708;50.364;7.550;2022-11-20T11:24:31;99969.56;;;7.12;100.00
54808;BME280;40708;50.364;7.550;2022-11-20T11:27:11;99967.75;;;7.06;100.00
54808;BME280;40708;50.364;7.550;2022-11-20T11:29:37;99964.31;;;7.19;100.00
54808;BME280;40708;50.364;7.550;2022-11-20T11:32:18;99965.22;;;7.25;100.00
54808;BME280;40708;50.364;7.550;2022-11-20T11:34:44;99959.03;;;7.16;100.00
54808;BME280;40708;50.364;7.550;2022-11-20T11:37:33;99945.81;;;7.15;100.00
54808;BME280;40708;50.364;7.550;2022-11-20T11:39:59;99944.84;;;7.04;100.00
54808;BME280;40708;50.364;7.550;2022-11-20T11:42:25;99943.09;;;7.04;100.00
54808;BME280;40708;50.364;7.550;2022-11-20T11:44:51;99944.97;;;7.22;100.00
54808;BME280;40708;50.364;7.550;2022-11-20T11:55:26;99922.16;;;7.30;100.00
54808;BME280;40708;50.364;7.550;2022-11-20T11:58:09;99925.63;;;7.22;100.00
54808;BME280;40708;50.364;7.550;2022-11-20T12:00:39;99918.47;;;7.02;100.00
54808;BME280;40708;50.364;7.550;2022-11-20T12:03:19;99912.19;;;6.81;100.00
54808;BME280;40708;50.364;7.550;2022-11-20T12:05:49;99913.03;;;6.75;100.00
54808;BME280;40708;50.364;7.550;2022-11-20T12:14:03;99914.66;;;6.61;100.00
54808;BME280;40708;50.364;7.550;2022-11-20T12:16:34;99911.25;;;6.71;100.00
54808;BME280;40708;50.364;7.550;2022-11-20T12:19:01;99908.50;;;6.59;100.00
54808;BME280;40708;50.364;7.550;2022-11-20T12:21:45;99897.78;;;6.35;100.00
54808;BME280;40708;50.364;7.550;2022-11-20T12:27:39;99906.41;;;6.19;100.00
54808;BME280;40708;50.364;7.550;2022-11-20T12:30:14;99898.41;;;6.10;100.00
54808;BME280;40708;50.364;7.550;2022-11-20T12:33:12;99906.41;;;6.20;100.00
54808;BME280;40708;50.364;7.550;2022-11-20T12:42:01;99917.00;;;6.28;100.00
54808;BME280;40708;50.364;7.550;2022-11-20T12:45:14;99919.66;;;6.31;100.00
54808;BME280;40708;50.364;7.550;2022-11-20T12:47:59;99912.69;;;6.34;100.00
54808;BME280;40708;50.364;7.550;2022-11-20T12:59:39;99898.91;;;6.69;100.00
54808;BME280;40708;50.364;7.550;2022-11-20T13:02:26;99902.59;;;6.96;100.00
54808;BME280;40708;50.364;7.550;2022-11-20T13:05:18;99895.66;;;7.06;100.00
54808;BME280;40708;50.364;7.550;2022-11-20T13:07:44;99888.53;;;6.96;100.00
54808;BME280;40708;50.364;7.550;2022-11-20T13:12:58;99876.34;;;7.17;100.00
54808;BME280;40708;50.364;7.550;2022-11-20T13:16:04;99867.59;;;7.17;100.00
54808;BME280;40708;50.364;7.550;2022-11-20T13:18:39;99861.44;;;7.26;100.00
54808;BME280;40708;50.364;7.550;2022-11-20T13:21:14;99856.22;;;7.36;100.00
54808;BME280;40708;50.364;7.550;2022-11-20T13:23:40;99848.25;;;7.29;100.00
54808;BME280;40708;50.364;7.550;2022-11-20T13:26:22;99840.41;;;7.41;100.00
54808;BME280;40708;50.364;7.550;2022-11-20T13:29:05;99842.13;;;7.30;100.00
54808;BME280;40708;50.364;7.550;2022-11-20T13:31:35;99840.34;;;7.27;100.00
54808;BME280;40708;50.364;7.550;2022-11-20T13:34:04;99833.34;;;7.32;100.00
54808;BME280;40708;50.364;7.550;2022-11-20T13:36:30;99824.44;;;7.10;100.00
54808;BME280;40708;50.364;7.550;2022-11-20T13:38:58;99812.16;;;7.15;100.00
54808;BME280;40708;50.364;7.550;2022-11-20T13:41:34;99820.13;;;7.28;100.00
54808;BME280;40708;50.364;7.550;2022-11-20T13:46:42;99805.19;;;7.30;100.00
54808;BME280;40708;50.364;7.550;2022-11-20T13:49:16;99818.38;;;7.34;100.00
54808;BME280;40708;50.364;7.550;2022-11-20T13:51:48;99805.16;;;7.31;100.00
54808;BME280;40708;50.364;7.550;2022-11-20T14:00:12;99796.44;;;7.47;100.00
54808;BME280;40708;50.364;7.550;2022-11-20T14:02:38;99805.22;;;7.46;100.00